DLH4HU EPKK-EDDF
Flight info
| Callsign | DLH4HU |
|---|---|
| Flight time | 1h 21m |
| Altitude | 34000 |
| Route | ADADO M992 UTEVO DCT RAPET T170 GAPLA T178 KERAX KERAX5A |
| Aircraft | A20N/M-SDE2E3FGHIRWXY/LB1 |
Departure
| Time | 2026-05-07 15:14 |
|---|---|
| Airport | Kraków John Paul II International Airport (EPKK) |
Arrival
| Time | 2026-05-07 16:35 |
|---|---|
| Airport | Frankfurt Main Airport (EDDF) |
| Time | Latitude | Longitude | Altitude | Speed | Heading |
|---|---|---|---|---|---|
| 2026-05-07 14:40 | 50.07313 | 19.79921 | 790 ft | 0 kts | 167° |
| 2026-05-07 14:56 | 50.07327 | 19.79916 | 790 ft | 4 kts | 167° |
| 2026-05-07 14:56 | 50.07353 | 19.79907 | 790 ft | 4 kts | 166° |
| 2026-05-07 14:56 | 50.07379 | 19.79897 | 790 ft | 3 kts | 165° |
| 2026-05-07 14:56 | 50.07387 | 19.79893 | 790 ft | 0 kts | 165° |
| 2026-05-07 14:57 | 50.07314 | 19.79921 | 790 ft | 0 kts | 167° |
| 2026-05-07 15:00 | 50.07330 | 19.79915 | 790 ft | 4 kts | 167° |
| 2026-05-07 15:00 | 50.07348 | 19.79909 | 790 ft | 4 kts | 166° |
| 2026-05-07 15:00 | 50.07380 | 19.79896 | 790 ft | 2 kts | 165° |
| 2026-05-07 15:00 | 50.07381 | 19.79896 | 790 ft | 1 kts | 165° |
| 2026-05-07 15:04 | 50.07377 | 19.79902 | 790 ft | 0 kts | 136° |
| 2026-05-07 15:04 | 50.07377 | 19.79910 | 790 ft | 0 kts | 97° |
| 2026-05-07 15:05 | 50.07380 | 19.79920 | 790 ft | 2 kts | 61° |
| 2026-05-07 15:05 | 50.07399 | 19.79948 | 790 ft | 6 kts | 31° |
| 2026-05-07 15:05 | 50.07448 | 19.79954 | 790 ft | 9 kts | 349° |
| 2026-05-07 15:05 | 50.07519 | 19.79930 | 790 ft | 12 kts | 346° |
| 2026-05-07 15:06 | 50.07611 | 19.79898 | 790 ft | 14 kts | 348° |
| 2026-05-07 15:06 | 50.07661 | 19.79882 | 789 ft | 0 kts | 348° |
| 2026-05-07 15:08 | 50.07666 | 19.79881 | 789 ft | 2 kts | 348° |
| 2026-05-07 15:08 | 50.07696 | 19.79875 | 789 ft | 6 kts | 3° |
| 2026-05-07 15:08 | 50.07721 | 19.79936 | 789 ft | 9 kts | 78° |
| 2026-05-07 15:09 | 50.07737 | 19.80046 | 789 ft | 12 kts | 77° |
| 2026-05-07 15:09 | 50.07757 | 19.80191 | 790 ft | 15 kts | 78° |
| 2026-05-07 15:09 | 50.07789 | 19.80344 | 790 ft | 11 kts | 34° |
| 2026-05-07 15:09 | 50.07845 | 19.80335 | 790 ft | 3 kts | 349° |
| 2026-05-07 15:10 | 50.07846 | 19.80334 | 790 ft | 0 kts | 348° |
| 2026-05-07 15:11 | 50.07852 | 19.80333 | 790 ft | 3 kts | 348° |
| 2026-05-07 15:11 | 50.07885 | 19.80322 | 790 ft | 7 kts | 348° |
| 2026-05-07 15:11 | 50.07948 | 19.80301 | 789 ft | 12 kts | 348° |
| 2026-05-07 15:12 | 50.08009 | 19.80245 | 789 ft | 10 kts | 294° |
| 2026-05-07 15:12 | 50.08005 | 19.80132 | 789 ft | 12 kts | 258° |
| 2026-05-07 15:12 | 50.07986 | 19.79992 | 789 ft | 8 kts | 258° |
| 2026-05-07 15:12 | 50.07985 | 19.79989 | 789 ft | 0 kts | 257° |
| 2026-05-07 15:13 | 50.07971 | 19.79889 | 788 ft | 38 kts | 257° |
| 2026-05-07 15:13 | 50.07858 | 19.79103 | 790 ft | 107 kts | 258° |
| 2026-05-07 15:13 | 50.07658 | 19.77704 | 866 ft | 149 kts | 256° |
| 2026-05-07 15:14 | 50.07442 | 19.76126 | 1459 ft | 150 kts | 258° |
| 2026-05-07 15:14 | 50.07238 | 19.74533 | 2153 ft | 150 kts | 258° |
| 2026-05-07 15:14 | 50.07046 | 19.72933 | 2864 ft | 151 kts | 259° |
| 2026-05-07 15:14 | 50.06868 | 19.71326 | 3570 ft | 151 kts | 261° |
| 2026-05-07 15:15 | 50.06709 | 19.69709 | 4256 ft | 151 kts | 261° |
| 2026-05-07 15:15 | 50.06556 | 19.68058 | 4893 ft | 162 kts | 259° |
| 2026-05-07 15:15 | 50.06234 | 19.66229 | 5540 ft | 183 kts | 250° |
| 2026-05-07 15:15 | 50.05838 | 19.64474 | 6914 ft | 166 kts | 254° |
| 2026-05-07 15:16 | 50.05614 | 19.62731 | 7940 ft | 174 kts | 257° |
| 2026-05-07 15:16 | 50.05337 | 19.60727 | 8413 ft | 201 kts | 255° |
| 2026-05-07 15:16 | 50.04962 | 19.58431 | 8557 ft | 248 kts | 255° |
| 2026-05-07 15:16 | 50.04532 | 19.55588 | 8882 ft | 282 kts | 256° |
| 2026-05-07 15:17 | 50.04116 | 19.52627 | 10180 ft | 276 kts | 256° |
| 2026-05-07 15:17 | 50.03632 | 19.49154 | 11106 ft | 294 kts | 256° |
| 2026-05-07 15:17 | 50.03174 | 19.45922 | 11495 ft | 318 kts | 256° |
| 2026-05-07 15:17 | 50.02840 | 19.42425 | 12146 ft | 332 kts | 264° |
| 2026-05-07 15:18 | 50.02850 | 19.38858 | 13051 ft | 338 kts | 272° |
| 2026-05-07 15:18 | 50.03179 | 19.35201 | 13933 ft | 344 kts | 276° |
| 2026-05-07 15:18 | 50.03564 | 19.31499 | 14731 ft | 349 kts | 276° |
| 2026-05-07 15:18 | 50.03944 | 19.27746 | 15462 ft | 355 kts | 276° |
| 2026-05-07 15:19 | 50.04326 | 19.23932 | 15801 ft | 358 kts | 275° |
| 2026-05-07 15:19 | 50.04707 | 19.20100 | 15926 ft | 359 kts | 276° |
| 2026-05-07 15:19 | 50.05089 | 19.16257 | 15944 ft | 359 kts | 276° |
| 2026-05-07 15:19 | 50.05468 | 19.12408 | 16134 ft | 363 kts | 275° |
| 2026-05-07 15:20 | 50.05851 | 19.08524 | 16950 ft | 364 kts | 275° |
| 2026-05-07 15:20 | 50.06236 | 19.04610 | 17782 ft | 368 kts | 275° |
| 2026-05-07 15:20 | 50.06622 | 19.00656 | 18513 ft | 373 kts | 275° |
| 2026-05-07 15:20 | 50.07014 | 18.96644 | 19264 ft | 374 kts | 275° |
| 2026-05-07 15:21 | 50.07406 | 18.92628 | 19999 ft | 377 kts | 274° |
| 2026-05-07 15:21 | 50.07797 | 18.88602 | 20717 ft | 379 kts | 274° |
| 2026-05-07 15:21 | 50.08193 | 18.84513 | 21433 ft | 382 kts | 273° |
| 2026-05-07 15:21 | 50.08589 | 18.80397 | 22148 ft | 385 kts | 273° |
| 2026-05-07 15:22 | 50.09063 | 18.76263 | 22815 ft | 392 kts | 277° |
| 2026-05-07 15:22 | 50.09682 | 18.72116 | 23490 ft | 395 kts | 277° |
| 2026-05-07 15:22 | 50.10304 | 18.67927 | 24054 ft | 399 kts | 277° |
| 2026-05-07 15:22 | 50.10928 | 18.63697 | 24613 ft | 402 kts | 276° |
| 2026-05-07 15:23 | 50.11553 | 18.59439 | 25164 ft | 405 kts | 276° |
| 2026-05-07 15:23 | 50.12180 | 18.55140 | 25668 ft | 409 kts | 276° |
| 2026-05-07 15:23 | 50.12803 | 18.50859 | 26164 ft | 412 kts | 276° |
| 2026-05-07 15:23 | 50.13370 | 18.46469 | 26667 ft | 413 kts | 273° |
| 2026-05-07 15:24 | 50.13688 | 18.43486 | 26997 ft | 415 kts | 273° |
| 2026-05-07 15:24 | 50.14171 | 18.39022 | 27480 ft | 419 kts | 273° |
| 2026-05-07 15:24 | 50.14660 | 18.34524 | 27953 ft | 422 kts | 273° |
| 2026-05-07 15:24 | 50.15311 | 18.28516 | 28552 ft | 426 kts | 273° |
| 2026-05-07 15:25 | 50.15803 | 18.23946 | 28996 ft | 429 kts | 273° |
| 2026-05-07 15:25 | 50.16135 | 18.20843 | 29294 ft | 430 kts | 273° |
| 2026-05-07 15:25 | 50.16629 | 18.16218 | 29722 ft | 433 kts | 273° |
| 2026-05-07 15:25 | 50.17116 | 18.11635 | 30102 ft | 436 kts | 272° |
| 2026-05-07 15:26 | 50.17616 | 18.06899 | 30502 ft | 438 kts | 273° |
| 2026-05-07 15:26 | 50.18105 | 18.02265 | 30885 ft | 440 kts | 272° |
| 2026-05-07 15:26 | 50.18605 | 17.97502 | 31318 ft | 440 kts | 272° |
| 2026-05-07 15:26 | 50.19092 | 17.92857 | 31818 ft | 439 kts | 272° |
| 2026-05-07 15:27 | 50.19583 | 17.88155 | 32351 ft | 437 kts | 272° |
| 2026-05-07 15:27 | 50.20068 | 17.83481 | 32871 ft | 435 kts | 272° |
| 2026-05-07 15:27 | 50.20548 | 17.78839 | 33385 ft | 433 kts | 272° |
| 2026-05-07 15:27 | 50.20912 | 17.74232 | 33821 ft | 427 kts | 267° |
| 2026-05-07 15:28 | 50.20988 | 17.69609 | 33946 ft | 421 kts | 263° |
| 2026-05-07 15:28 | 50.20984 | 17.65024 | 33941 ft | 421 kts | 263° |
| 2026-05-07 15:28 | 50.20994 | 17.55888 | 33949 ft | 422 kts | 263° |
| 2026-05-07 15:29 | 50.21032 | 17.46722 | 33944 ft | 423 kts | 264° |
| 2026-05-07 15:29 | 50.21207 | 17.37530 | 33947 ft | 424 kts | 265° |
| 2026-05-07 15:30 | 50.21387 | 17.28300 | 33949 ft | 425 kts | 265° |
| 2026-05-07 15:30 | 50.21545 | 17.19063 | 33949 ft | 425 kts | 264° |
| 2026-05-07 15:31 | 50.21688 | 17.09848 | 33944 ft | 425 kts | 264° |
| 2026-05-07 15:31 | 50.21821 | 17.00652 | 33946 ft | 426 kts | 264° |
| 2026-05-07 15:32 | 50.21947 | 16.91392 | 33943 ft | 427 kts | 264° |
| 2026-05-07 15:32 | 50.22066 | 16.82103 | 33937 ft | 428 kts | 264° |
| 2026-05-07 15:33 | 50.22180 | 16.72826 | 33944 ft | 428 kts | 264° |
| 2026-05-07 15:33 | 50.22284 | 16.63503 | 33931 ft | 430 kts | 264° |
| 2026-05-07 15:34 | 50.22381 | 16.54157 | 33939 ft | 431 kts | 264° |
| 2026-05-07 15:34 | 50.22471 | 16.44844 | 33945 ft | 432 kts | 264° |
| 2026-05-07 15:35 | 50.22555 | 16.35383 | 33939 ft | 434 kts | 264° |
| 2026-05-07 15:35 | 50.22631 | 16.26026 | 33943 ft | 434 kts | 264° |
| 2026-05-07 15:36 | 50.22699 | 16.16586 | 33948 ft | 435 kts | 264° |
| 2026-05-07 15:36 | 50.22760 | 16.07138 | 33954 ft | 435 kts | 264° |
| 2026-05-07 15:37 | 50.22814 | 15.97683 | 33952 ft | 435 kts | 264° |
| 2026-05-07 15:37 | 50.22859 | 15.88221 | 33950 ft | 436 kts | 265° |
| 2026-05-07 15:38 | 50.22897 | 15.78765 | 33953 ft | 436 kts | 265° |
| 2026-05-07 15:38 | 50.22927 | 15.69292 | 33948 ft | 436 kts | 265° |
| 2026-05-07 15:39 | 50.22949 | 15.59832 | 33945 ft | 436 kts | 265° |
| 2026-05-07 15:39 | 50.22964 | 15.50360 | 33942 ft | 436 kts | 265° |
| 2026-05-07 15:40 | 50.22971 | 15.40897 | 33945 ft | 436 kts | 265° |
| 2026-05-07 15:40 | 50.22970 | 15.31417 | 33947 ft | 437 kts | 265° |
| 2026-05-07 15:41 | 50.22963 | 15.21930 | 33951 ft | 437 kts | 265° |
| 2026-05-07 15:41 | 50.22947 | 15.12420 | 33950 ft | 437 kts | 266° |
| 2026-05-07 15:42 | 50.22923 | 15.02922 | 33955 ft | 438 kts | 266° |
| 2026-05-07 15:42 | 50.22892 | 14.93405 | 33955 ft | 439 kts | 266° |
| 2026-05-07 15:43 | 50.22853 | 14.83929 | 33957 ft | 439 kts | 266° |
| 2026-05-07 15:43 | 50.22807 | 14.74372 | 33964 ft | 440 kts | 266° |
| 2026-05-07 15:44 | 50.22752 | 14.64801 | 33965 ft | 441 kts | 266° |
| 2026-05-07 15:44 | 50.22689 | 14.55234 | 33968 ft | 442 kts | 266° |
| 2026-05-07 15:45 | 50.22619 | 14.45638 | 33973 ft | 442 kts | 266° |
| 2026-05-07 15:45 | 50.22540 | 14.36031 | 33972 ft | 442 kts | 266° |
| 2026-05-07 15:46 | 50.22407 | 14.21620 | 33970 ft | 442 kts | 266° |
| 2026-05-07 15:47 | 50.22308 | 14.12010 | 33973 ft | 443 kts | 266° |
| 2026-05-07 15:47 | 50.22202 | 14.02407 | 33978 ft | 443 kts | 266° |
| 2026-05-07 15:48 | 50.22090 | 13.92880 | 33978 ft | 442 kts | 266° |
| 2026-05-07 15:48 | 50.21967 | 13.83279 | 33972 ft | 442 kts | 266° |
| 2026-05-07 15:49 | 50.21836 | 13.73677 | 33982 ft | 442 kts | 266° |
| 2026-05-07 15:49 | 50.21699 | 13.64084 | 33986 ft | 443 kts | 266° |
| 2026-05-07 15:50 | 50.21553 | 13.54475 | 33985 ft | 443 kts | 267° |
| 2026-05-07 15:50 | 50.21399 | 13.44872 | 33983 ft | 442 kts | 267° |
| 2026-05-07 15:51 | 50.21237 | 13.35264 | 33990 ft | 442 kts | 267° |
| 2026-05-07 15:51 | 50.21067 | 13.25661 | 33990 ft | 442 kts | 267° |
| 2026-05-07 15:52 | 50.20890 | 13.16067 | 33991 ft | 442 kts | 267° |
| 2026-05-07 15:52 | 50.20704 | 13.06487 | 33991 ft | 442 kts | 267° |
| 2026-05-07 15:53 | 50.20511 | 12.96899 | 33990 ft | 442 kts | 267° |
| 2026-05-07 15:53 | 50.20311 | 12.87306 | 33995 ft | 442 kts | 267° |
| 2026-05-07 15:54 | 50.20102 | 12.77717 | 33996 ft | 442 kts | 267° |
| 2026-05-07 15:54 | 50.19886 | 12.68120 | 34001 ft | 443 kts | 267° |
| 2026-05-07 15:55 | 50.19661 | 12.58523 | 34006 ft | 442 kts | 267° |
| 2026-05-07 15:55 | 50.19431 | 12.48931 | 34009 ft | 442 kts | 267° |
| 2026-05-07 15:56 | 50.19229 | 12.39332 | 34013 ft | 443 kts | 270° |
| 2026-05-07 15:56 | 50.20082 | 12.29827 | 34018 ft | 444 kts | 284° |
| 2026-05-07 15:57 | 50.22083 | 12.20703 | 34017 ft | 445 kts | 289° |
| 2026-05-07 15:57 | 50.24159 | 12.11674 | 34022 ft | 445 kts | 289° |
| 2026-05-07 15:58 | 50.26253 | 12.02501 | 34023 ft | 445 kts | 289° |
| 2026-05-07 15:58 | 50.28338 | 11.93397 | 34026 ft | 445 kts | 289° |
| 2026-05-07 15:59 | 50.30427 | 11.84294 | 34023 ft | 445 kts | 289° |
| 2026-05-07 15:59 | 50.32489 | 11.75259 | 34022 ft | 445 kts | 289° |
| 2026-05-07 16:00 | 50.34554 | 11.66162 | 34027 ft | 445 kts | 289° |
| 2026-05-07 16:00 | 50.36622 | 11.57015 | 34028 ft | 445 kts | 289° |
| 2026-05-07 16:01 | 50.38679 | 11.47871 | 34030 ft | 445 kts | 289° |
| 2026-05-07 16:01 | 50.40730 | 11.38723 | 34037 ft | 445 kts | 289° |
| 2026-05-07 16:02 | 50.42772 | 11.29570 | 34032 ft | 444 kts | 289° |
| 2026-05-07 16:02 | 50.44802 | 11.20411 | 34034 ft | 444 kts | 289° |
| 2026-05-07 16:03 | 50.46823 | 11.11255 | 34036 ft | 443 kts | 289° |
| 2026-05-07 16:03 | 50.48824 | 11.02160 | 34037 ft | 444 kts | 289° |
| 2026-05-07 16:04 | 50.50828 | 10.93008 | 34041 ft | 443 kts | 288° |
| 2026-05-07 16:04 | 50.52825 | 10.83843 | 34042 ft | 443 kts | 288° |
| 2026-05-07 16:05 | 50.54856 | 10.74699 | 34043 ft | 443 kts | 289° |
| 2026-05-07 16:05 | 50.56941 | 10.65578 | 34038 ft | 442 kts | 289° |
| 2026-05-07 16:06 | 50.59006 | 10.56467 | 34040 ft | 442 kts | 289° |
| 2026-05-07 16:06 | 50.61066 | 10.47355 | 34039 ft | 442 kts | 289° |
| 2026-05-07 16:07 | 50.63113 | 10.38244 | 34039 ft | 441 kts | 288° |
| 2026-05-07 16:07 | 50.63814 | 10.33542 | 34034 ft | 440 kts | 276° |
| 2026-05-07 16:07 | 50.63920 | 10.28729 | 34037 ft | 440 kts | 265° |
| 2026-05-07 16:08 | 50.62410 | 10.19527 | 34028 ft | 439 kts | 244° |
| 2026-05-07 16:08 | 50.59465 | 10.10998 | 34043 ft | 441 kts | 242° |
| 2026-05-07 16:09 | 50.56543 | 10.02579 | 34043 ft | 440 kts | 242° |
| 2026-05-07 16:09 | 50.53885 | 9.93930 | 34047 ft | 440 kts | 250° |
| 2026-05-07 16:10 | 50.52148 | 9.84731 | 34050 ft | 439 kts | 254° |
| 2026-05-07 16:10 | 50.50491 | 9.75497 | 34043 ft | 438 kts | 254° |
| 2026-05-07 16:11 | 50.48873 | 9.66307 | 34033 ft | 437 kts | 255° |
| 2026-05-07 16:11 | 50.47297 | 9.57087 | 33967 ft | 435 kts | 255° |
| 2026-05-07 16:11 | 50.46467 | 9.52510 | 33469 ft | 434 kts | 253° |
| 2026-05-07 16:12 | 50.45605 | 9.47973 | 32739 ft | 434 kts | 253° |
| 2026-05-07 16:12 | 50.44733 | 9.43439 | 31938 ft | 434 kts | 253° |
| 2026-05-07 16:12 | 50.43876 | 9.38970 | 31125 ft | 435 kts | 253° |
| 2026-05-07 16:12 | 50.43285 | 9.35882 | 30555 ft | 436 kts | 253° |
| 2026-05-07 16:13 | 50.42419 | 9.31340 | 29809 ft | 433 kts | 253° |
| 2026-05-07 16:13 | 50.41564 | 9.26842 | 29056 ft | 429 kts | 253° |
| 2026-05-07 16:13 | 50.40719 | 9.22384 | 28356 ft | 424 kts | 253° |
| 2026-05-07 16:13 | 50.39884 | 9.17980 | 27672 ft | 420 kts | 253° |
| 2026-05-07 16:14 | 50.39055 | 9.13609 | 27000 ft | 416 kts | 253° |
| 2026-05-07 16:14 | 50.38234 | 9.09288 | 26348 ft | 412 kts | 253° |
| 2026-05-07 16:14 | 50.37420 | 9.05001 | 25716 ft | 409 kts | 253° |
| 2026-05-07 16:14 | 50.36611 | 9.00748 | 25085 ft | 405 kts | 253° |
| 2026-05-07 16:15 | 50.35806 | 8.96533 | 24477 ft | 402 kts | 253° |
| 2026-05-07 16:15 | 50.35008 | 8.92364 | 23879 ft | 398 kts | 253° |
| 2026-05-07 16:15 | 50.34215 | 8.88227 | 23223 ft | 395 kts | 253° |
| 2026-05-07 16:15 | 50.33959 | 8.86893 | 23006 ft | 394 kts | 253° |
| 2026-05-07 16:16 | 50.33768 | 8.85904 | 22847 ft | 392 kts | 253° |
| 2026-05-07 16:16 | 50.33130 | 8.82594 | 22321 ft | 389 kts | 253° |
| 2026-05-07 16:16 | 50.32354 | 8.78561 | 21685 ft | 386 kts | 253° |
| 2026-05-07 16:16 | 50.31582 | 8.74557 | 21045 ft | 382 kts | 253° |
| 2026-05-07 16:17 | 50.30819 | 8.70599 | 20443 ft | 378 kts | 253° |
| 2026-05-07 16:17 | 50.30064 | 8.66680 | 19823 ft | 375 kts | 253° |
| 2026-05-07 16:17 | 50.29315 | 8.62783 | 19217 ft | 372 kts | 253° |
| 2026-05-07 16:17 | 50.28574 | 8.58924 | 18624 ft | 369 kts | 253° |
| 2026-05-07 16:18 | 50.27841 | 8.55098 | 18012 ft | 366 kts | 253° |
| 2026-05-07 16:18 | 50.27114 | 8.51314 | 17391 ft | 362 kts | 253° |
| 2026-05-07 16:18 | 50.26389 | 8.47554 | 16772 ft | 359 kts | 253° |
| 2026-05-07 16:18 | 50.25673 | 8.43847 | 16173 ft | 355 kts | 253° |
| 2026-05-07 16:19 | 50.24757 | 8.40289 | 15568 ft | 354 kts | 239° |
| 2026-05-07 16:19 | 50.23125 | 8.37442 | 14980 ft | 353 kts | 218° |
| 2026-05-07 16:19 | 50.20955 | 8.35711 | 14392 ft | 353 kts | 197° |
| 2026-05-07 16:19 | 50.18555 | 8.35317 | 13850 ft | 354 kts | 176° |
| 2026-05-07 16:20 | 50.16185 | 8.36309 | 13231 ft | 354 kts | 155° |
| 2026-05-07 16:20 | 50.14207 | 8.38568 | 12619 ft | 354 kts | 133° |
| 2026-05-07 16:20 | 50.12896 | 8.41770 | 12042 ft | 352 kts | 111° |
| 2026-05-07 16:20 | 50.12424 | 8.45481 | 11474 ft | 349 kts | 90° |
| 2026-05-07 16:21 | 50.12815 | 8.49193 | 10905 ft | 346 kts | 74° |
| 2026-05-07 16:21 | 50.13468 | 8.52784 | 10377 ft | 344 kts | 73° |
| 2026-05-07 16:21 | 50.14121 | 8.56353 | 9984 ft | 337 kts | 73° |
| 2026-05-07 16:21 | 50.14747 | 8.59789 | 9827 ft | 323 kts | 73° |
| 2026-05-07 16:22 | 50.15348 | 8.63095 | 9683 ft | 309 kts | 73° |
| 2026-05-07 16:22 | 50.15920 | 8.66259 | 9512 ft | 297 kts | 73° |
| 2026-05-07 16:22 | 50.16475 | 8.69329 | 9119 ft | 293 kts | 73° |
| 2026-05-07 16:22 | 50.17028 | 8.72381 | 8690 ft | 291 kts | 73° |
| 2026-05-07 16:23 | 50.17579 | 8.75416 | 8281 ft | 290 kts | 73° |
| 2026-05-07 16:23 | 50.18125 | 8.78428 | 7865 ft | 288 kts | 73° |
| 2026-05-07 16:23 | 50.18668 | 8.81427 | 7528 ft | 284 kts | 73° |
| 2026-05-07 16:23 | 50.19193 | 8.84327 | 7413 ft | 272 kts | 73° |
| 2026-05-07 16:24 | 50.19696 | 8.87105 | 7306 ft | 260 kts | 73° |
| 2026-05-07 16:24 | 50.20174 | 8.89745 | 7142 ft | 253 kts | 73° |
| 2026-05-07 16:24 | 50.20651 | 8.92380 | 6836 ft | 251 kts | 73° |
| 2026-05-07 16:24 | 50.21131 | 8.95026 | 6509 ft | 251 kts | 73° |
| 2026-05-07 16:25 | 50.21605 | 8.97652 | 6301 ft | 249 kts | 74° |
| 2026-05-07 16:25 | 50.22081 | 9.00258 | 6035 ft | 250 kts | 73° |
| 2026-05-07 16:25 | 50.22543 | 9.02826 | 5737 ft | 248 kts | 73° |
| 2026-05-07 16:25 | 50.23006 | 9.05409 | 5429 ft | 246 kts | 73° |
| 2026-05-07 16:26 | 50.23465 | 9.07979 | 5112 ft | 246 kts | 73° |
| 2026-05-07 16:26 | 50.23914 | 9.10548 | 4845 ft | 244 kts | 77° |
| 2026-05-07 16:26 | 50.23882 | 9.13177 | 4546 ft | 243 kts | 108° |
| 2026-05-07 16:26 | 50.23016 | 9.15386 | 4280 ft | 241 kts | 140° |
| 2026-05-07 16:27 | 50.21559 | 9.16583 | 4014 ft | 236 kts | 172° |
| 2026-05-07 16:27 | 50.19982 | 9.16382 | 3900 ft | 229 kts | 205° |
| 2026-05-07 16:27 | 50.17358 | 9.12982 | 3889 ft | 225 kts | 234° |
| 2026-05-07 16:28 | 50.16546 | 9.10902 | 3895 ft | 225 kts | 246° |
| 2026-05-07 16:28 | 50.15938 | 9.08656 | 3891 ft | 225 kts | 250° |
| 2026-05-07 16:28 | 50.15395 | 9.06371 | 3895 ft | 224 kts | 251° |
| 2026-05-07 16:28 | 50.14852 | 9.04087 | 3900 ft | 225 kts | 251° |
| 2026-05-07 16:29 | 50.14317 | 9.01847 | 3905 ft | 213 kts | 251° |
| 2026-05-07 16:29 | 50.13819 | 8.99758 | 3911 ft | 200 kts | 251° |
| 2026-05-07 16:29 | 50.13326 | 8.97685 | 3920 ft | 205 kts | 251° |
| 2026-05-07 16:30 | 50.11998 | 8.92119 | 3938 ft | 203 kts | 251° |
| 2026-05-07 16:30 | 50.11504 | 8.90046 | 3941 ft | 203 kts | 251° |
| 2026-05-07 16:30 | 50.11012 | 8.87980 | 3947 ft | 203 kts | 251° |
| 2026-05-07 16:31 | 50.10519 | 8.85915 | 3949 ft | 203 kts | 251° |
| 2026-05-07 16:31 | 50.10028 | 8.83858 | 3957 ft | 202 kts | 251° |
| 2026-05-07 16:31 | 50.09534 | 8.81787 | 3802 ft | 207 kts | 250° |
| 2026-05-07 16:31 | 50.09030 | 8.79678 | 3409 ft | 204 kts | 251° |
| 2026-05-07 16:32 | 50.08551 | 8.77668 | 3102 ft | 197 kts | 251° |
| 2026-05-07 16:32 | 50.08035 | 8.75502 | 2843 ft | 226 kts | 251° |
| 2026-05-07 16:32 | 50.07503 | 8.73291 | 2514 ft | 208 kts | 252° |
| 2026-05-07 16:32 | 50.07021 | 8.71266 | 2237 ft | 191 kts | 252° |
| 2026-05-07 16:33 | 50.06576 | 8.69406 | 2155 ft | 181 kts | 252° |
| 2026-05-07 16:33 | 50.06130 | 8.67531 | 2163 ft | 188 kts | 252° |
| 2026-05-07 16:33 | 50.05662 | 8.65522 | 1992 ft | 197 kts | 253° |
| 2026-05-07 16:33 | 50.05229 | 8.63651 | 1637 ft | 175 kts | 252° |
| 2026-05-07 16:34 | 50.04769 | 8.61930 | 1124 ft | 169 kts | 249° |
| 2026-05-07 16:34 | 50.04375 | 8.60294 | 745 ft | 153 kts | 252° |
| 2026-05-07 16:34 | 50.04024 | 8.58835 | 458 ft | 135 kts | 251° |
| 2026-05-07 16:34 | 50.03740 | 8.57554 | 380 ft | 112 kts | 242° |
| 2026-05-07 16:35 | 50.03563 | 8.56849 | 380 ft | 29 kts | 251° |
| 2026-05-07 16:35 | 50.03462 | 8.56402 | 384 ft | 24 kts | 251° |
| 2026-05-07 16:35 | 50.03430 | 8.56138 | 382 ft | 26 kts | 275° |
| 2026-05-07 16:36 | 50.03452 | 8.55909 | 379 ft | 10 kts | 279° |
| 2026-05-07 16:36 | 50.03453 | 8.55904 | 378 ft | 0 kts | 279° |
| 2026-05-07 16:40 | 50.03455 | 8.55884 | 386 ft | 4 kts | 279° |
| 2026-05-07 16:40 | 50.03463 | 8.55814 | 389 ft | 9 kts | 279° |
| 2026-05-07 16:40 | 50.03483 | 8.55717 | 384 ft | 9 kts | 312° |
| 2026-05-07 16:41 | 50.03493 | 8.55706 | 387 ft | 0 kts | 331° |
| 2026-05-07 16:41 | 50.03508 | 8.55694 | 380 ft | 5 kts | 333° |
| 2026-05-07 16:41 | 50.03527 | 8.55637 | 391 ft | 8 kts | 269° |
| 2026-05-07 16:41 | 50.03511 | 8.55535 | 386 ft | 12 kts | 248° |
| 2026-05-07 16:42 | 50.03475 | 8.55403 | 390 ft | 15 kts | 247° |
| 2026-05-07 16:42 | 50.03434 | 8.55235 | 389 ft | 18 kts | 249° |
| 2026-05-07 16:42 | 50.03388 | 8.55034 | 390 ft | 21 kts | 248° |
| 2026-05-07 16:42 | 50.03334 | 8.54817 | 384 ft | 20 kts | 250° |
| 2026-05-07 16:43 | 50.03285 | 8.54610 | 384 ft | 17 kts | 249° |
| 2026-05-07 16:43 | 50.03320 | 8.54476 | 392 ft | 15 kts | 341° |
| 2026-05-07 16:43 | 50.03373 | 8.54447 | 383 ft | 2 kts | 340° |
| 2026-05-07 16:43 | 50.03390 | 8.54437 | 386 ft | 0 kts | 339° |
| 2026-05-07 16:46 | 50.03392 | 8.54435 | 382 ft | 2 kts | 339° |
| 2026-05-07 16:46 | 50.03427 | 8.54414 | 391 ft | 10 kts | 339° |
| 2026-05-07 16:46 | 50.03527 | 8.54356 | 389 ft | 18 kts | 339° |
| 2026-05-07 16:46 | 50.03640 | 8.54315 | 394 ft | 16 kts | 18° |
| 2026-05-07 16:47 | 50.03732 | 8.54372 | 390 ft | 15 kts | 347° |
| 2026-05-07 16:47 | 50.03779 | 8.54347 | 388 ft | 0 kts | 339° |
| 2026-05-07 16:49 | 50.03790 | 8.54341 | 393 ft | 5 kts | 339° |
| 2026-05-07 16:49 | 50.03854 | 8.54347 | 390 ft | 15 kts | 37° |
| 2026-05-07 16:49 | 50.03876 | 8.54417 | 389 ft | 0 kts | 83° |
| 2026-05-07 16:49 | 50.03864 | 8.54459 | 399 ft | 7 kts | 142° |
| 2026-05-07 16:50 | 50.03807 | 8.54483 | 397 ft | 10 kts | 159° |
| 2026-05-07 16:50 | 50.03795 | 8.54491 | 391 ft | 0 kts | 158° |